Time;durP1;ratioP1;P1;durP2;ratioP2;P2;SDS_P1;SDS_P2;PMS_P1;PMS_P2;Temp;Humidity;BMP_temperature;BMP_pressure;BME280_temperature;BME280_humidity;BME280_pressure;Samples;Min_cycle;Max_cycle;Signal;HPM_P1;HPM_P2
2022/05/14 00:00:35;;;;;;;7.83;4.30;;;;;;;;;;5070774;28;20445;-75
2022/05/14 00:03:02;;;;;;;4.90;3.90;;;;;;;;;;5070443;28;20444;-76
2022/05/14 00:05:29;;;;;;;4.70;3.87;;;;;;;;;;5070987;28;20444;-76
2022/05/14 00:07:58;;;;;;;3.70;3.40;;;;;;;;;;5056599;28;20548;-77
2022/05/14 00:10:26;;;;;;;6.57;5.20;;;;;;;;;;5050723;28;20445;-77
2022/05/14 00:13:07;;;;;;;4.57;3.43;;;;;;;;;;5087150;27;20514;-76
2022/05/14 00:15:35;;;;;;;5.13;4.60;;;;;;;;;;5087584;28;20444;-77
2022/05/14 00:18:02;;;;;;;4.63;3.67;;;;;;;;;;5087658;28;20983;-77
2022/05/14 00:20:31;;;;;;;4.30;3.90;;;;;;;;;;5087724;28;20436;-77
2022/05/14 00:22:58;;;;;;;8.50;3.90;;;;;;;;;;5087051;28;20958;-77
2022/05/14 00:25:26;;;;;;;4.10;3.40;;;;;;;;;;5087701;28;20440;-77
2022/05/14 00:27:53;;;;;;;3.80;3.47;;;;;;;;;;5086791;28;20460;-77
2022/05/14 00:30:24;;;;;;;4.97;4.57;;;;;;;;;;5087083;28;20478;-77
2022/05/14 00:32:52;;;;;;;4.90;3.50;;;;;;;;;;5087008;28;20547;-78
2022/05/14 00:35:19;;;;;;;5.83;3.30;;;;;;;;;;5087688;28;20501;-76
2022/05/14 00:37:47;;;;;;;3.90;3.50;;;;;;;;;;5087777;28;20631;-77
2022/05/14 00:40:15;;;;;;;5.63;3.90;;;;;;;;;;5089401;28;20527;-77
2022/05/14 00:42:42;;;;;;;4.30;3.70;;;;;;;;;;5088881;28;20444;-78
2022/05/14 00:45:10;;;;;;;4.23;3.83;;;;;;;;;;5087495;28;20440;-77
2022/05/14 00:47:40;;;;;;;4.73;4.07;;;;;;;;;;5087634;28;20972;-77
2022/05/14 00:50:08;;;;;;;7.37;4.20;;;;;;;;;;5087272;28;20444;-78
2022/05/14 00:52:35;;;;;;;5.43;4.10;;;;;;;;;;5087634;28;20557;-76
2022/05/14 00:55:04;;;;;;;6.27;4.53;;;;;;;;;;5088265;28;20509;-77
2022/05/14 00:57:34;;;;;;;4.23;3.90;;;;;;;;;;5087660;28;20471;-78
2022/05/14 01:00:04;;;;;;;5.83;4.23;;;;;;;;;;5087709;28;20440;-77
2022/05/14 01:02:31;;;;;;;4.43;4.03;;;;;;;;;;5086871;28;20519;-78
2022/05/14 01:05:00;;;;;;;4.83;4.33;;;;;;;;;;5086813;28;20484;-77
2022/05/14 01:07:27;;;;;;;4.43;4.10;;;;;;;;;;5087882;28;20464;-76
2022/05/14 01:09:58;;;;;;;7.53;4.90;;;;;;;;;;5087891;28;20818;-77
2022/05/14 01:12:26;;;;;;;5.33;4.93;;;;;;;;;;5086513;28;20475;-76
2022/05/14 01:14:53;;;;;;;8.97;4.57;;;;;;;;;;5086805;28;20455;-76
2022/05/14 01:17:20;;;;;;;5.80;5.20;;;;;;;;;;5086859;28;20459;-78
2022/05/14 01:19:47;;;;;;;5.20;4.67;;;;;;;;;;5086769;28;20530;-76
2022/05/14 01:22:31;;;;;;;6.63;4.13;;;;;;;;;;5085938;28;20440;-77
2022/05/14 01:27:50;;;;;;;4.90;4.43;;;;;;;;;;5073222;28;20455;-76
2022/05/14 01:30:17;;;;;;;6.73;5.03;;;;;;;;;;5072542;28;20942;-77
2022/05/14 01:32:47;;;;;;;7.60;4.70;;;;;;;;;;5072167;28;20589;-77
2022/05/14 01:35:15;;;;;;;6.23;5.33;;;;;;;;;;5072838;28;20437;-78
2022/05/14 01:37:42;;;;;;;5.40;4.90;;;;;;;;;;5073242;28;20543;-76
2022/05/14 01:40:10;;;;;;;5.77;4.73;;;;;;;;;;5072632;28;20448;-76
2022/05/14 01:42:37;;;;;;;7.43;5.20;;;;;;;;;;5072340;28;20471;-77
2022/05/14 01:45:06;;;;;;;5.70;5.20;;;;;;;;;;5072580;28;20445;-76
2022/05/14 01:47:35;;;;;;;6.10;5.50;;;;;;;;;;5072752;28;20463;-77
2022/05/14 01:50:02;;;;;;;7.83;5.73;;;;;;;;;;5072927;28;20867;-77
2022/05/14 01:52:29;;;;;;;9.53;5.50;;;;;;;;;;5072642;28;20571;-77
2022/05/14 01:54:56;;;;;;;8.50;5.07;;;;;;;;;;5072288;28;20452;-76
2022/05/14 01:57:23;;;;;;;5.83;5.03;;;;;;;;;;5072480;28;20465;-76
2022/05/14 01:59:50;;;;;;;6.43;5.83;;;;;;;;;;5071997;28;20451;-78
2022/05/14 02:02:18;;;;;;;6.57;5.97;;;;;;;;;;5072631;28;20441;-76
2022/05/14 02:04:45;;;;;;;7.23;5.80;;;;;;;;;;5071943;28;20445;-77
2022/05/14 02:07:12;;;;;;;6.10;5.50;;;;;;;;;;5063628;28;20519;-76
2022/05/14 02:09:39;;;;;;;7.57;5.80;;;;;;;;;;5052479;28;20890;-76
2022/05/14 02:12:07;;;;;;;5.63;5.17;;;;;;;;;;5052176;28;21069;-75
2022/05/14 02:14:34;;;;;;;7.53;6.87;;;;;;;;;;5051775;28;20454;-77
2022/05/14 02:17:01;;;;;;;8.83;6.10;;;;;;;;;;5052070;28;20472;-77
2022/05/14 02:19:29;;;;;;;7.73;6.03;;;;;;;;;;5052168;28;20449;-76
2022/05/14 02:21:56;;;;;;;6.60;5.90;;;;;;;;;;5053853;28;20433;-77
2022/05/14 02:24:23;;;;;;;6.57;5.93;;;;;;;;;;5052633;28;20507;-75
2022/05/14 02:26:50;;;;;;;6.07;5.57;;;;;;;;;;5054014;28;20606;-76
2022/05/14 02:29:18;;;;;;;8.30;6.83;;;;;;;;;;5053588;28;20452;-76
2022/05/14 02:31:45;;;;;;;7.10;6.50;;;;;;;;;;5053957;28;20482;-76
2022/05/14 02:34:12;;;;;;;9.33;6.03;;;;;;;;;;5052650;28;20921;-76
2022/05/14 02:36:40;;;;;;;6.27;5.60;;;;;;;;;;5051775;28;20446;-77
2022/05/14 02:39:07;;;;;;;6.17;5.57;;;;;;;;;;5052260;28;20460;-77
2022/05/14 02:41:34;;;;;;;7.17;5.63;;;;;;;;;;5051470;28;20449;-77
2022/05/14 02:44:01;;;;;;;6.40;5.90;;;;;;;;;;5051310;28;20530;-76
2022/05/14 02:46:28;;;;;;;6.77;6.10;;;;;;;;;;5051404;28;20450;-77
2022/05/14 02:48:55;;;;;;;7.03;6.40;;;;;;;;;;5051358;28;20461;-77
2022/05/14 02:51:22;;;;;;;6.33;5.73;;;;;;;;;;5051455;28;20940;-77
2022/05/14 02:53:51;;;;;;;11.60;6.27;;;;;;;;;;5051221;28;21019;-77
2022/05/14 02:56:18;;;;;;;6.30;5.80;;;;;;;;;;5051400;28;20445;-77
2022/05/14 03:01:29;;;;;;;6.83;6.30;;;;;;;;;;5051396;28;20421;-76
2022/05/14 03:03:57;;;;;;;8.43;6.80;;;;;;;;;;5052013;28;20879;-77
2022/05/14 03:06:24;;;;;;;9.30;6.30;;;;;;;;;;5052222;28;20452;-77
2022/05/14 03:08:52;;;;;;;7.90;6.97;;;;;;;;;;5071245;28;20473;-77
2022/05/14 03:11:19;;;;;;;7.13;6.60;;;;;;;;;;5071026;28;20510;-77
2022/05/14 03:13:46;;;;;;;8.40;7.70;;;;;;;;;;5070361;28;20488;-77
2022/05/14 03:16:13;;;;;;;7.20;6.70;;;;;;;;;;5071562;28;20441;-77
2022/05/14 03:18:41;;;;;;;11.30;6.60;;;;;;;;;;5071004;28;20475;-77
2022/05/14 03:21:08;;;;;;;6.67;6.03;;;;;;;;;;5071521;28;20521;-76
2022/05/14 03:23:35;;;;;;;7.10;6.40;;;;;;;;;;5070620;28;20436;-76
2022/05/14 03:26:03;;;;;;;11.93;7.23;;;;;;;;;;5070934;28;20495;-77
2022/05/14 03:28:30;;;;;;;8.63;6.90;;;;;;;;;;5070873;28;20472;-76
2022/05/14 03:30:57;;;;;;;7.37;6.70;;;;;;;;;;5070561;28;20799;-76
2022/05/14 03:33:25;;;;;;;7.17;6.50;;;;;;;;;;5070337;28;20816;-77
2022/05/14 03:35:52;;;;;;;7.40;6.67;;;;;;;;;;5070695;28;20585;-77
2022/05/14 03:38:19;;;;;;;7.03;6.33;;;;;;;;;;5071057;28;20487;-77
2022/05/14 03:40:47;;;;;;;7.57;6.87;;;;;;;;;;5071200;28;20441;-77
2022/05/14 03:43:15;;;;;;;7.73;6.70;;;;;;;;;;5070171;28;20445;-76
2022/05/14 03:45:42;;;;;;;7.23;6.63;;;;;;;;;;5070458;28;20444;-76
2022/05/14 03:48:09;;;;;;;7.40;6.63;;;;;;;;;;5069736;28;20460;-77
2022/05/14 03:50:36;;;;;;;6.90;6.40;;;;;;;;;;5070794;28;20448;-77
2022/05/14 03:53:04;;;;;;;6.50;6.00;;;;;;;;;;5070075;28;20487;-77
2022/05/14 03:55:31;;;;;;;8.37;6.33;;;;;;;;;;5070578;28;20448;-77
2022/05/14 03:57:58;;;;;;;7.03;6.33;;;;;;;;;;5070967;28;20460;-76
2022/05/14 04:00:26;;;;;;;7.00;5.80;;;;;;;;;;5070259;28;20449;-76
2022/05/14 04:02:53;;;;;;;6.73;6.00;;;;;;;;;;5069757;28;21009;-76
2022/05/14 04:05:20;;;;;;;8.13;7.37;;;;;;;;;;5070273;28;20444;-78
2022/05/14 04:07:48;;;;;;;7.67;6.43;;;;;;;;;;5057296;28;20474;-77
2022/05/14 04:10:16;;;;;;;6.80;6.20;;;;;;;;;;5050110;28;21009;-77
2022/05/14 04:12:43;;;;;;;9.40;6.90;;;;;;;;;;5049339;28;20508;-77
2022/05/14 04:15:11;;;;;;;9.10;6.90;;;;;;;;;;5050110;28;20445;-76
2022/05/14 04:17:39;;;;;;;7.03;6.50;;;;;;;;;;5050186;28;20527;-77
2022/05/14 04:20:07;;;;;;;10.97;7.63;;;;;;;;;;5050557;28;20458;-77
2022/05/14 04:22:34;;;;;;;7.80;7.00;;;;;;;;;;5049863;28;20468;-77
2022/05/14 04:25:01;;;;;;;7.47;6.77;;;;;;;;;;5050128;28;20438;-77
2022/05/14 04:27:28;;;;;;;7.40;6.67;;;;;;;;;;5050021;28;20462;-77
2022/05/14 04:29:55;;;;;;;7.60;6.27;;;;;;;;;;5049998;28;20452;-77
2022/05/14 04:32:22;;;;;;;6.80;6.20;;;;;;;;;;5050090;28;20473;-77
2022/05/14 04:34:50;;;;;;;8.93;7.07;;;;;;;;;;5049728;28;20949;-77
2022/05/14 04:37:17;;;;;;;7.73;6.93;;;;;;;;;;5049755;28;20523;-77
2022/05/14 04:39:44;;;;;;;7.50;6.80;;;;;;;;;;5049869;28;20898;-77
2022/05/14 04:42:11;;;;;;;7.63;6.90;;;;;;;;;;5049745;28;20813;-76
2022/05/14 04:44:39;;;;;;;8.37;7.47;;;;;;;;;;5050078;28;20523;-77
2022/05/14 04:47:07;;;;;;;6.90;6.33;;;;;;;;;;5050310;28;20829;-76
2022/05/14 04:49:38;;;;;;;7.10;6.40;;;;;;;;;;5050076;28;20446;-76
2022/05/14 04:52:07;;;;;;;8.03;6.60;;;;;;;;;;5049856;28;20450;-76
2022/05/14 04:54:34;;;;;;;6.33;5.60;;;;;;;;;;5049876;28;20441;-77
2022/05/14 04:57:01;;;;;;;8.20;6.20;;;;;;;;;;5050486;28;20973;-77
2022/05/14 04:59:28;;;;;;;6.70;5.90;;;;;;;;;;5053150;28;20453;-77
2022/05/14 05:04:40;;;;;;;6.03;5.53;;;;;;;;;;5054426;28;20492;-76
2022/05/14 05:07:09;;;;;;;5.10;4.70;;;;;;;;;;5061188;28;20467;-78
2022/05/14 05:09:36;;;;;;;5.23;4.80;;;;;;;;;;5073803;28;20452;-76
2022/05/14 05:12:03;;;;;;;5.93;5.27;;;;;;;;;;5073605;28;20452;-76
2022/05/14 05:14:30;;;;;;;4.93;4.53;;;;;;;;;;5073601;28;20484;-77
2022/05/14 05:16:58;;;;;;;4.57;4.17;;;;;;;;;;5073944;28;20498;-77
2022/05/14 05:19:25;;;;;;;6.10;4.33;;;;;;;;;;5076394;28;20444;-77
2022/05/14 05:21:52;;;;;;;5.17;4.27;;;;;;;;;;5086359;28;20425;-77
2022/05/14 05:24:20;;;;;;;3.87;3.60;;;;;;;;;;5097653;28;20455;-77
2022/05/14 05:26:49;;;;;;;4.63;3.30;;;;;;;;;;5074674;28;20436;-77
2022/05/14 05:29:16;;;;;;;4.00;3.60;;;;;;;;;;5073166;28;20448;-77
2022/05/14 05:31:43;;;;;;;4.13;3.30;;;;;;;;;;5073581;28;20448;-78
2022/05/14 05:34:10;;;;;;;6.20;3.40;;;;;;;;;;5072793;28;20523;-77
2022/05/14 05:36:37;;;;;;;7.33;6.07;;;;;;;;;;5072680;28;20448;-77
2022/05/14 05:39:04;;;;;;;20.43;18.37;;;;;;;;;;5073170;28;20466;-77
2022/05/14 05:41:32;;;;;;;4.20;3.70;;;;;;;;;;5072822;28;20966;-77
2022/05/14 05:43:59;;;;;;;5.43;4.80;;;;;;;;;;5072848;28;20908;-77
2022/05/14 05:46:26;;;;;;;5.93;4.10;;;;;;;;;;5073161;28;20494;-77
2022/05/14 05:48:53;;;;;;;8.83;4.23;;;;;;;;;;5072565;28;20464;-78
2022/05/14 05:51:20;;;;;;;6.53;5.57;;;;;;;;;;5072831;28;20502;-76
2022/05/14 05:59:25;;;;;;;7.47;4.87;;;;;;;;;;5057208;28;21002;-78
2022/05/14 06:01:52;;;;;;;8.77;4.90;;;;;;;;;;5072947;28;20817;-78
2022/05/14 06:04:20;;;;;;;5.70;4.27;;;;;;;;;;5073405;28;20440;-77
2022/05/14 06:06:47;;;;;;;5.13;4.63;;;;;;;;;;5069034;28;20475;-77
2022/05/14 06:09:15;;;;;;;4.33;4.03;;;;;;;;;;5052431;28;20507;-77
2022/05/14 06:11:44;;;;;;;29.00;24.57;;;;;;;;;;5051572;28;20453;-78
2022/05/14 06:14:12;;;;;;;10.70;6.57;;;;;;;;;;5051553;28;21105;-77
2022/05/14 06:16:39;;;;;;;7.00;5.13;;;;;;;;;;5051842;28;20449;-77
2022/05/14 06:19:06;;;;;;;9.10;5.57;;;;;;;;;;5051987;28;20441;-76
2022/05/14 06:21:33;;;;;;;9.10;4.63;;;;;;;;;;5052152;28;20449;-77
2022/05/14 06:24:00;;;;;;;5.30;4.23;;;;;;;;;;5051884;28;20446;-77
2022/05/14 06:26:27;;;;;;;4.17;3.80;;;;;;;;;;5052064;28;20523;-77
2022/05/14 06:28:55;;;;;;;5.20;4.80;;;;;;;;;;5051807;28;20458;-77
2022/05/14 06:31:22;;;;;;;6.00;5.10;;;;;;;;;;5052149;28;20540;-77
2022/05/14 06:33:50;;;;;;;6.27;5.20;;;;;;;;;;5051336;28;20473;-77
2022/05/14 06:36:17;;;;;;;6.50;5.30;;;;;;;;;;5051465;28;20441;-77
2022/05/14 06:38:44;;;;;;;7.50;5.37;;;;;;;;;;5051558;28;20462;-76
2022/05/14 06:41:12;;;;;;;14.10;5.87;;;;;;;;;;5052153;28;20463;-77
2022/05/14 06:43:39;;;;;;;6.43;5.80;;;;;;;;;;5051597;28;20800;-76
2022/05/14 06:46:08;;;;;;;6.00;5.50;;;;;;;;;;5051648;28;21014;-77
2022/05/14 06:48:35;;;;;;;6.60;6.07;;;;;;;;;;5051757;28;20565;-76
2022/05/14 06:51:04;;;;;;;7.63;6.90;;;;;;;;;;5051355;28;20445;-76
2022/05/14 06:53:31;;;;;;;5.43;4.80;;;;;;;;;;5051419;28;20481;-78
2022/05/14 06:55:59;;;;;;;6.67;5.03;;;;;;;;;;5051306;28;20441;-76
2022/05/14 06:58:28;;;;;;;4.63;4.23;;;;;;;;;;5051308;28;20481;-76
2022/05/14 07:00:55;;;;;;;5.50;4.97;;;;;;;;;;5050787;28;20933;-75
2022/05/14 07:08:53;;;;;;;4.10;3.73;;;;;;;;;;5050898;28;21336;-77
2022/05/14 07:11:20;;;;;;;3.90;3.60;;;;;;;;;;5050930;28;20453;-76
2022/05/14 07:13:47;;;;;;;4.00;3.70;;;;;;;;;;5050600;28;20474;-76
2022/05/14 07:16:14;;;;;;;5.30;3.97;;;;;;;;;;5050481;28;20515;-77
2022/05/14 07:18:43;;;;;;;4.10;3.80;;;;;;;;;;5050871;28;20466;-77
2022/05/14 07:21:10;;;;;;;6.33;4.43;;;;;;;;;;5050310;28;20499;-77
2022/05/14 07:23:37;;;;;;;5.17;4.27;;;;;;;;;;5050102;28;20445;-77
2022/05/14 07:26:05;;;;;;;6.13;4.17;;;;;;;;;;5050288;28;21039;-76
2022/05/14 07:28:33;;;;;;;5.17;4.53;;;;;;;;;;5050298;28;20940;-77
2022/05/14 07:31:00;;;;;;;5.50;4.90;;;;;;;;;;5050302;28;20792;-77
2022/05/14 07:33:27;;;;;;;5.60;4.53;;;;;;;;;;5049954;28;20477;-76
2022/05/14 07:35:57;;;;;;;5.17;4.33;;;;;;;;;;5050448;28;20514;-76
2022/05/14 07:38:24;;;;;;;6.67;3.77;;;;;;;;;;5051171;28;20465;-76
2022/05/14 07:40:51;;;;;;;5.03;4.50;;;;;;;;;;5050281;28;20456;-77
2022/05/14 07:43:20;;;;;;;5.80;4.80;;;;;;;;;;5050055;28;20511;-76
2022/05/14 07:45:50;;;;;;;4.80;3.80;;;;;;;;;;5049971;28;20826;-76
2022/05/14 07:48:20;;;;;;;4.10;3.70;;;;;;;;;;5049956;28;20462;-76
2022/05/14 07:50:47;;;;;;;3.70;3.40;;;;;;;;;;5049933;28;20437;-77
2022/05/14 07:53:17;;;;;;;3.77;3.40;;;;;;;;;;5049643;28;20441;-76
2022/05/14 07:55:44;;;;;;;6.63;2.80;;;;;;;;;;5049805;28;20503;-77
2022/05/14 07:58:11;;;;;;;3.27;2.80;;;;;;;;;;5049878;28;20466;-77
2022/05/14 08:00:39;;;;;;;3.30;2.97;;;;;;;;;;5049549;28;20499;-77
2022/05/14 08:03:06;;;;;;;5.87;3.07;;;;;;;;;;5049292;28;20996;-76
2022/05/14 08:05:33;;;;;;;3.20;2.90;;;;;;;;;;5049872;28;20809;-76
2022/05/14 08:08:00;;;;;;;3.20;2.87;;;;;;;;;;5063988;28;20613;-76
2022/05/14 08:10:29;;;;;;;4.40;2.73;;;;;;;;;;5069411;28;20498;-78
2022/05/14 08:12:56;;;;;;;3.70;3.20;;;;;;;;;;5069566;28;20472;-77
2022/05/14 08:15:25;;;;;;;2.60;2.40;;;;;;;;;;5069778;28;20563;-77
2022/05/14 08:17:52;;;;;;;4.60;2.70;;;;;;;;;;5069526;28;20464;-78
2022/05/14 08:20:19;;;;;;;4.00;2.50;;;;;;;;;;5069545;28;20467;-77
2022/05/14 08:25:32;;;;;;;3.83;3.10;;;;;;;;;;5069917;28;20559;-77
2022/05/14 08:28:00;;;;;;;3.03;2.43;;;;;;;;;;5069611;28;20490;-77
2022/05/14 08:30:28;;;;;;;2.47;2.30;;;;;;;;;;5069783;28;20502;-77
2022/05/14 08:32:56;;;;;;;6.73;3.37;;;;;;;;;;5069976;28;20920;-77
2022/05/14 08:35:24;;;;;;;4.47;2.60;;;;;;;;;;5073592;28;20477;-77
2022/05/14 08:37:51;;;;;;;4.07;2.40;;;;;;;;;;5073347;28;20464;-78
2022/05/14 08:40:20;;;;;;;3.20;2.47;;;;;;;;;;5073879;28;20502;-76
2022/05/14 08:42:51;;;;;;;3.30;2.30;;;;;;;;;;5073287;28;20444;-78
2022/05/14 08:45:19;;;;;;;2.67;2.30;;;;;;;;;;5073633;28;20441;-77
2022/05/14 08:47:55;;;;;;;2.70;2.50;;;;;;;;;;5073785;28;20467;-76
2022/05/14 08:50:22;;;;;;;2.83;2.17;;;;;;;;;;5073162;28;20931;-77
2022/05/14 08:52:49;;;;;;;3.50;2.70;;;;;;;;;;5072836;28;20436;-77
2022/05/14 08:55:18;;;;;;;5.50;2.77;;;;;;;;;;5073172;28;21061;-76
2022/05/14 08:57:50;;;;;;;4.63;2.23;;;;;;;;;;5073134;28;20471;-77
2022/05/14 09:00:19;;;;;;;2.90;2.50;;;;;;;;;;5072934;28;20520;-77
2022/05/14 09:02:48;;;;;;;3.60;2.60;;;;;;;;;;5072769;28;20444;-76
2022/05/14 09:05:17;;;;;;;5.43;2.73;;;;;;;;;;5072890;28;20441;-76
2022/05/14 09:07:45;;;;;;;3.17;2.57;;;;;;;;;;5060286;28;20466;-77
2022/05/14 09:10:20;;;;;;;2.70;2.50;;;;;;;;;;5053149;28;20445;-76
2022/05/14 09:12:51;;;;;;;5.53;2.80;;;;;;;;;;5052747;28;20453;-76
2022/05/14 09:15:19;;;;;;;3.50;2.00;;;;;;;;;;5052529;28;20485;-76
2022/05/14 09:17:46;;;;;;;2.70;2.50;;;;;;;;;;5052698;28;20461;-78
2022/05/14 09:20:22;;;;;;;4.30;2.37;;;;;;;;;;5052390;28;20761;-77
2022/05/14 09:22:55;;;;;;;3.93;2.20;;;;;;;;;;5052595;28;20453;-77
2022/05/14 09:25:24;;;;;;;2.10;1.80;;;;;;;;;;5052924;28;20449;-76
2022/05/14 09:27:54;;;;;;;5.30;2.07;;;;;;;;;;5053710;28;20505;-76
2022/05/14 09:30:31;;;;;;;2.40;2.20;;;;;;;;;;5052787;28;20437;-76
2022/05/14 09:32:58;;;;;;;5.90;2.30;;;;;;;;;;5052159;28;20495;-77
2022/05/14 09:35:26;;;;;;;2.33;2.13;;;;;;;;;;5052143;28;20592;-76
2022/05/14 09:37:57;;;;;;;3.63;2.50;;;;;;;;;;5051883;28;20465;-76
2022/05/14 09:40:25;;;;;;;1.97;1.87;;;;;;;;;;5052215;28;20527;-76
2022/05/14 09:42:53;;;;;;;2.47;2.10;;;;;;;;;;5051988;28;20446;-77
2022/05/14 09:45:25;;;;;;;3.00;2.27;;;;;;;;;;5051691;28;20937;-76
2022/05/14 09:47:53;;;;;;;4.63;2.90;;;;;;;;;;5052243;28;20461;-75
2022/05/14 09:50:23;;;;;;;6.30;2.53;;;;;;;;;;5052142;28;20500;-76
2022/05/14 09:52:57;;;;;;;2.60;2.13;;;;;;;;;;5051574;28;20449;-76
2022/05/14 09:55:25;;;;;;;2.90;2.40;;;;;;;;;;5051979;28;20476;-76
2022/05/14 09:57:57;;;;;;;3.37;2.00;;;;;;;;;;5051942;28;20531;-76
2022/05/14 10:00:28;;;;;;;3.80;2.20;;;;;;;;;;5051912;28;20453;-76
2022/05/14 10:03:05;;;;;;;1.83;1.73;;;;;;;;;;5051217;28;20464;-75
2022/05/14 10:05:40;;;;;;;2.10;1.80;;;;;;;;;;5051857;28;20449;-75
2022/05/14 10:08:13;;;;;;;3.70;2.60;;;;;;;;;;5067208;28;20468;-77
2022/05/14 10:10:44;;;;;;;3.00;1.77;;;;;;;;;;5071806;28;20456;-75
2022/05/14 10:13:15;;;;;;;4.27;2.30;;;;;;;;;;5071096;28;20436;-76
2022/05/14 10:15:45;;;;;;;4.80;2.03;;;;;;;;;;5071556;28;20476;-76
2022/05/14 10:18:20;;;;;;;2.30;1.73;;;;;;;;;;5071717;28;20475;-75
2022/05/14 10:20:54;;;;;;;2.80;1.70;;;;;;;;;;5071495;28;20448;-76
2022/05/14 10:29:09;;;;;;;3.43;1.73;;;;;;;;;;5071346;28;20420;-76
2022/05/14 10:31:38;;;;;;;2.57;1.77;;;;;;;;;;5071004;28;20440;-76
2022/05/14 10:34:11;;;;;;;3.77;1.80;;;;;;;;;;5070802;28;21159;-76
2022/05/14 10:36:42;;;;;;;3.67;1.70;;;;;;;;;;5070918;28;20559;-75
2022/05/14 10:39:12;;;;;;;2.77;1.97;;;;;;;;;;5071659;28;20444;-76
2022/05/14 10:41:42;;;;;;;2.10;1.77;;;;;;;;;;5071752;28;20448;-77
2022/05/14 10:44:11;;;;;;;1.70;1.60;;;;;;;;;;5071568;28;20441;-76
2022/05/14 10:46:40;;;;;;;2.93;1.87;;;;;;;;;;5071714;28;20440;-76
2022/05/14 10:49:10;;;;;;;2.30;1.70;;;;;;;;;;5072117;28;20860;-76
2022/05/14 10:51:42;;;;;;;2.80;1.83;;;;;;;;;;5072243;28;20445;-76
2022/05/14 10:54:13;;;;;;;5.00;1.60;;;;;;;;;;5070685;28;20449;-76
2022/05/14 10:56:51;;;;;;;2.37;1.80;;;;;;;;;;5069987;28;20444;-77
2022/05/14 10:59:32;;;;;;;3.83;1.73;;;;;;;;;;5070818;28;20444;-76
2022/05/14 11:02:02;;;;;;;3.07;1.50;;;;;;;;;;5070266;28;20856;-76
2022/05/14 11:04:32;;;;;;;4.10;1.90;;;;;;;;;;5070304;28;20950;-76
2022/05/14 11:07:00;;;;;;;3.83;1.80;;;;;;;;;;5064363;28;20858;-77
2022/05/14 11:09:38;;;;;;;3.73;1.93;;;;;;;;;;5050393;28;20849;-76
2022/05/14 11:12:08;;;;;;;5.87;1.97;;;;;;;;;;5050496;28;20450;-76
2022/05/14 11:14:40;;;;;;;2.03;1.73;;;;;;;;;;5050057;28;20481;-76
2022/05/14 11:17:17;;;;;;;3.00;1.60;;;;;;;;;;5050333;28;20543;-76
2022/05/14 11:19:46;;;;;;;1.87;1.37;;;;;;;;;;5050497;28;20952;-77
2022/05/14 11:22:19;;;;;;;5.40;2.50;;;;;;;;;;5049976;28;20441;-76
2022/05/14 11:24:47;;;;;;;2.37;1.67;;;;;;;;;;5050178;28;20450;-76
2022/05/14 11:27:24;;;;;;;4.20;1.90;;;;;;;;;;5050102;28;20526;-76
2022/05/14 11:29:54;;;;;;;2.53;1.90;;;;;;;;;;5050887;28;20449;-76
2022/05/14 11:32:22;;;;;;;1.37;1.27;;;;;;;;;;5050024;28;20450;-76
2022/05/14 11:34:55;;;;;;;1.87;1.60;;;;;;;;;;5050099;28;21044;-76
2022/05/14 11:37:30;;;;;;;2.67;1.50;;;;;;;;;;5049656;28;20837;-76
2022/05/14 11:40:13;;;;;;;2.40;1.47;;;;;;;;;;5050274;28;20817;-76
2022/05/14 11:42:40;;;;;;;3.90;1.40;;;;;;;;;;5049579;28;20877;-76
2022/05/14 11:45:13;;;;;;;3.93;1.77;;;;;;;;;;5049842;28;20917;-77
2022/05/14 11:47:45;;;;;;;1.67;1.40;;;;;;;;;;5049764;28;20515;-77
2022/05/14 11:50:14;;;;;;;1.83;1.30;;;;;;;;;;5049859;28;20449;-76
2022/05/14 11:52:54;;;;;;;4.60;1.53;;;;;;;;;;5049718;28;20457;-76
2022/05/14 11:55:22;;;;;;;1.10;1.10;;;;;;;;;;5050021;28;20477;-76
2022/05/14 11:57:51;;;;;;;1.63;1.20;;;;;;;;;;5049344;28;20849;-76
2022/05/14 12:00:19;;;;;;;2.43;1.60;;;;;;;;;;5049586;28;20445;-77
2022/05/14 12:02:49;;;;;;;2.90;2.00;;;;;;;;;;5049261;28;20526;-77
2022/05/14 12:05:20;;;;;;;2.77;1.20;;;;;;;;;;5049590;28;20441;-76
2022/05/14 12:08:00;;;;;;;1.70;1.40;;;;;;;;;;5062126;28;20472;-76
2022/05/14 12:10:30;;;;;;;4.47;1.40;;;;;;;;;;5069627;28;20463;-76
2022/05/14 12:13:01;;;;;;;3.10;1.50;;;;;;;;;;5069129;28;20452;-77
2022/05/14 12:15:30;;;;;;;2.60;1.40;;;;;;;;;;5069404;28;20484;-76
2022/05/14 12:17:59;;;;;;;1.53;1.43;;;;;;;;;;5069320;28;20522;-77
2022/05/14 12:20:28;;;;;;;2.10;1.20;;;;;;;;;;5069259;28;20471;-77
2022/05/14 12:22:57;;;;;;;2.30;1.50;;;;;;;;;;5069194;28;20971;-76
2022/05/14 12:25:35;;;;;;;2.13;1.40;;;;;;;;;;5069565;28;20445;-76
2022/05/14 12:28:02;;;;;;;3.30;1.60;;;;;;;;;;5069303;28;20461;-77
2022/05/14 12:33:14;;;;;;;1.40;1.30;;;;;;;;;;5069211;28;20686;-76
2022/05/14 12:35:44;;;;;;;2.30;1.20;;;;;;;;;;5069509;28;20480;-76
2022/05/14 12:38:14;;;;;;;1.33;1.10;;;;;;;;;;5069488;28;20468;-75
2022/05/14 12:40:41;;;;;;;4.03;1.60;;;;;;;;;;5070231;28;20535;-76
2022/05/14 12:43:09;;;;;;;3.70;1.67;;;;;;;;;;5069097;28;20448;-75
2022/05/14 12:45:36;;;;;;;1.53;1.27;;;;;;;;;;5069083;28;20518;-77
2022/05/14 12:48:04;;;;;;;2.13;1.70;;;;;;;;;;5069457;28;20469;-77
2022/05/14 12:50:32;;;;;;;3.70;1.30;;;;;;;;;;5069280;28;20866;-77
2022/05/14 12:53:02;;;;;;;4.00;1.30;;;;;;;;;;5068838;28;20936;-76
2022/05/14 12:55:30;;;;;;;1.27;1.17;;;;;;;;;;5069102;28;20484;-76
2022/05/14 12:57:58;;;;;;;1.93;1.37;;;;;;;;;;5068591;28;20521;-76
2022/05/14 13:00:25;;;;;;;1.33;1.20;;;;;;;;;;5069354;28;20452;-77
2022/05/14 13:02:54;;;;;;;1.53;1.00;;;;;;;;;;5068458;28;20448;-76
2022/05/14 13:05:23;;;;;;;2.40;1.30;;;;;;;;;;5069154;28;20440;-77
2022/05/14 13:07:51;;;;;;;3.27;1.10;;;;;;;;;;5055607;28;20461;-78
2022/05/14 13:10:22;;;;;;;4.53;1.50;;;;;;;;;;5048950;28;20969;-79
2022/05/14 13:12:50;;;;;;;2.83;1.53;;;;;;;;;;5048972;28;20519;-76
2022/05/14 13:15:17;;;;;;;1.47;1.37;;;;;;;;;;5049462;28;20489;-77
2022/05/14 13:17:45;;;;;;;4.53;2.03;;;;;;;;;;5048722;28;20469;-76
2022/05/14 13:20:17;;;;;;;2.80;1.40;;;;;;;;;;5051421;28;20498;-76
2022/05/14 13:22:45;;;;;;;1.50;1.30;;;;;;;;;;5052312;28;20441;-76
2022/05/14 13:25:26;;;;;;;1.97;1.33;;;;;;;;;;5052223;28;20824;-76
2022/05/14 13:27:53;;;;;;;2.87;1.27;;;;;;;;;;5052323;28;20468;-77
2022/05/14 13:30:31;;;;;;;1.53;1.43;;;;;;;;;;5052459;28;20469;-76
2022/05/14 13:33:03;;;;;;;3.73;2.10;;;;;;;;;;5052584;28;20783;-76
2022/05/14 13:38:15;;;;;;;4.73;1.30;;;;;;;;;;5052472;28;20798;-76
2022/05/14 13:40:46;;;;;;;3.43;1.93;;;;;;;;;;5052309;28;20499;-76
2022/05/14 13:43:14;;;;;;;3.00;1.50;;;;;;;;;;5052300;28;20881;-76
2022/05/14 13:45:45;;;;;;;1.90;1.50;;;;;;;;;;5052319;28;20452;-76
2022/05/14 13:48:13;;;;;;;1.30;1.20;;;;;;;;;;5051979;28;20555;-75
2022/05/14 13:50:42;;;;;;;3.17;1.43;;;;;;;;;;5052434;28;20882;-76
2022/05/14 13:53:21;;;;;;;2.40;1.40;;;;;;;;;;5051757;28;20789;-77
2022/05/14 13:55:59;;;;;;;2.33;1.43;;;;;;;;;;5052202;28;20482;-76
2022/05/14 13:58:27;;;;;;;4.97;1.47;;;;;;;;;;5051841;28;20837;-77
2022/05/14 14:00:56;;;;;;;2.17;1.20;;;;;;;;;;5052121;28;20568;-76
2022/05/14 14:03:25;;;;;;;1.93;1.30;;;;;;;;;;5051743;28;20523;-76
2022/05/14 14:05:52;;;;;;;2.43;1.40;;;;;;;;;;5052206;28;20437;-76
2022/05/14 14:08:21;;;;;;;3.00;1.63;;;;;;;;;;5069002;28;20472;-77
2022/05/14 14:10:53;;;;;;;2.30;1.87;;;;;;;;;;5071567;28;20440;-77
2022/05/14 14:13:20;;;;;;;1.73;1.60;;;;;;;;;;5071705;28;20456;-76
2022/05/14 14:15:47;;;;;;;2.73;1.57;;;;;;;;;;5072092;28;20498;-76
2022/05/14 14:18:15;;;;;;;4.50;1.50;;;;;;;;;;5071691;28;20484;-78
2022/05/14 14:20:44;;;;;;;3.57;1.60;;;;;;;;;;5071964;28;20945;-77
2022/05/14 14:23:12;;;;;;;3.33;1.60;;;;;;;;;;5071669;28;20444;-77
2022/05/14 14:25:40;;;;;;;2.83;1.50;;;;;;;;;;5071384;28;20440;-77
2022/05/14 14:28:10;;;;;;;8.10;7.40;;;;;;;;;;5071684;28;20469;-77
2022/05/14 14:30:37;;;;;;;3.23;1.43;;;;;;;;;;5071628;28;20444;-76
2022/05/14 14:33:05;;;;;;;1.30;1.20;;;;;;;;;;5071029;28;20505;-77
2022/05/14 14:35:32;;;;;;;2.03;1.30;;;;;;;;;;5071127;28;20508;-77
2022/05/14 14:37:59;;;;;;;4.50;1.17;;;;;;;;;;5070958;28;20468;-77
2022/05/14 14:40:26;;;;;;;3.33;1.40;;;;;;;;;;5070964;28;21263;-76
2022/05/14 14:42:53;;;;;;;5.00;1.43;;;;;;;;;;5070836;28;20513;-76
2022/05/14 14:45:22;;;;;;;2.43;1.40;;;;;;;;;;5071228;28;20505;-77
2022/05/14 14:47:49;;;;;;;1.63;1.27;;;;;;;;;;5071118;28;20472;-77
2022/05/14 14:50:18;;;;;;;1.63;1.50;;;;;;;;;;5071222;28;20522;-77
2022/05/14 14:52:46;;;;;;;2.03;1.80;;;;;;;;;;5070975;28;20444;-77
2022/05/14 14:55:13;;;;;;;3.83;1.40;;;;;;;;;;5070553;28;21002;-76
2022/05/14 14:57:40;;;;;;;2.87;1.50;;;;;;;;;;5071023;28;20534;-76
2022/05/14 15:00:07;;;;;;;1.83;1.43;;;;;;;;;;5070853;28;20449;-76
2022/05/14 15:02:40;;;;;;;4.93;1.57;;;;;;;;;;5070287;28;20445;-76
2022/05/14 15:05:09;;;;;;;3.80;1.43;;;;;;;;;;5070511;28;20507;-77
2022/05/14 15:07:36;;;;;;;1.73;1.60;;;;;;;;;;5059304;28;20507;-76
2022/05/14 15:10:03;;;;;;;5.90;1.27;;;;;;;;;;5050957;28;20445;-75
2022/05/14 15:12:31;;;;;;;2.10;1.20;;;;;;;;;;5050038;28;20454;-76
2022/05/14 15:14:58;;;;;;;3.33;1.50;;;;;;;;;;5050749;28;20491;-77
2022/05/14 15:17:27;;;;;;;1.67;1.50;;;;;;;;;;5050404;28;20493;-76
2022/05/14 15:19:55;;;;;;;2.80;2.07;;;;;;;;;;5050571;28;20963;-77
2022/05/14 15:22:25;;;;;;;2.13;1.80;;;;;;;;;;5050711;28;20496;-77
2022/05/14 15:24:53;;;;;;;2.10;1.50;;;;;;;;;;5050126;28;20523;-76